Aviation Digital Data Service (ADDS)

Output produced by METARs form (1315 UTC 25 February 2018)
found at http://aviationweather.gov/adds/metars/
 
KCKB 251136Z 2512/2612 21010KT 6SM -SHRA OVC035 
     FM251500 24011G21KT P6SM BKN025 
     FM251700 25011G20KT P6SM BKN040 
     FM252000 25010G20KT P6SM SCT150 
     FM252200 25008G16KT P6SM SCT200 
     FM252300 25007KT P6SM SCT250